• Join FlightAware (Why Join?)
  • Login
  • US Flag 
08:12PM EST


 

Airport Tracker/Info


-or-


 

Live Flight TrackerFlight Track Log ✈ VIR20 ✈ 20-Aug-2013 ✈ KSFO - EGLL / LHR

Flight Track Log - Related Links

Times and Time Zones

All times are in EDT time to prevent confusion due to time zone crossing. See the VIR20 flight status page for this flight to view local times or setup timezone preferences in your user account.

Time Position Orientation Groundspeed Altitude Reporting Facility
EDT Latitude Longitude Course Direction KTS MPH feet Rate Location/Type
10:58PM 37.6143 -122.3640 360° North 92 106  Level FlightAware ADS-B
10:58PM 37.6184 -122.3740 297° West 140 161 420 Level FlightAware ADS-B
10:58PM 37.6228 -122.3840 299° West 171 197 200 1,320 Climbing FlightAware ADS-B
10:58PM 37.6264 -122.3930 297° West 170 196 500 1,560 Climbing FlightAware ADS-B
10:58PM 37.6312 -122.4050 297° West 179 206 800 1,320 Climbing FlightAware ADS-B
10:59PM 37.6346 -122.4130 298° West 183 211 1,000 1,980 Climbing FlightAware ADS-B
10:59PM 37.6401 -122.4250 300° West 181 208 1,500 1,800 Climbing FlightAware ADS-B
10:59PM 37.6501 -122.4470 300° West 180 207 2,100 1,200 Climbing FlightAware ADS-B
10:59PM 37.6575 -122.4650 297° West 218 251 2,300 900 Climbing FlightAware ADS-B
11:00PM 37.6653 -122.4820 300° West 231 266 2,600 1,020 Climbing FlightAware ADS-B
11:00PM 37.6754 -122.5060 298° West 246 283 2,900 1,080 Climbing FlightAware ADS-B
11:01PM 37.7005 -122.5640 299° West 253 291 3,700 1,320 Climbing FlightAware ADS-B
11:01PM 37.7080 -122.5730 316° Northwest 285 328 4,000 1,860 Climbing FlightAware ADS-B
11:01PM 37.7170 -122.5810 325° Northwest 295 339 4,200 1,680 Climbing FlightAware ADS-B
11:01PM 37.7339 -122.5880 342° North 299 344 4,600 1,800 Climbing FlightAware ADS-B
11:01PM 37.7520 -122.5880 360° North 302 348 5,000 1,920 Climbing FlightAware ADS-B
11:02PM 37.7769 -122.5700 30° Northeast 300 345 5,700 2,040 Climbing FlightAware ADS-B
11:02PM 37.7861 -122.5570 48° Northeast 298 343 6,100 2,280 Climbing FlightAware ADS-B
11:02PM 37.7987 -122.5340 55° Northeast 297 342 6,700 2,100 Climbing FlightAware ADS-B
11:03PM 37.8270 -122.4890 51° Northeast 300 345 7,900 2,100 Climbing FlightAware
11:03PM 37.8448 -122.4610 51° Northeast 302 348 8,600 2,100 Climbing FlightAware ADS-B
11:04PM 37.8902 -122.3940 49° Northeast 310 357 10,300 1,620 Climbing FlightAware ADS-B
11:04PM 37.9194 -122.3510 49° Northeast 332 382 10,800 960 Climbing FlightAware ADS-B
11:05PM 37.9625 -122.2860 50° Northeast 359 413 11,500 960 Climbing FlightAware ADS-B
11:06PM 37.9960 -122.2360 50° Northeast 381 438 12,000 1,140 Climbing FlightAware ADS-B
11:06PM 38.0345 -122.1770 50° Northeast 396 456 12,700 1,440 Climbing FlightAware ADS-B
11:07PM 38.0960 -122.0830 50° Northeast 409 471 14,100 1,560 Climbing FlightAware
11:08PM 38.1330 -122.0270 50° Northeast 417 480 14,900 1,500 Climbing FlightAware
11:08PM 38.1840 -121.9510 49° Northeast 426 490 15,900 1,500 Climbing FlightAware
11:09PM 38.2280 -121.8830 51° Northeast 434 499 16,800 1,500 Climbing FlightAware
11:09PM 38.2720 -121.8170 50° Northeast 442 509 17,600 1,500 Climbing FlightAware
11:10PM 38.3170 -121.7460 51° Northeast 449 517 18,500 1,380 Climbing FlightAware
11:10PM 38.3640 -121.6770 49° Northeast 456 525 19,300 1,440 Climbing FlightAware
11:11PM 38.4080 -121.6080 51° Northeast 461 531 20,200 1,380 Climbing FlightAware
11:12PM 38.4570 -121.5400 47° Northeast 471 542 20,900 1,380 Climbing FlightAware
11:12PM 38.5280 -121.4690 38° Northeast 480 552 21,900 1,500 Climbing FlightAware
11:13PM 38.5920 -121.4110 35° Northeast 488 562 22,700 1,320 Climbing FlightAware
11:13PM 38.6590 -121.3480 36° Northeast 492 566 23,500 1,500 Climbing FlightAware
11:14PM 38.7180 -121.2920 37° Northeast 495 570 24,400 1,560 Climbing FlightAware
11:15PM 38.7840 -121.2280 37° Northeast 499 574 25,300 1,320 Climbing FlightAware
11:15PM 38.8490 -121.1660 37° Northeast 504 580 26,000 1,260 Climbing FlightAware
11:16PM 38.9160 -121.1000 37° Northeast 510 587 26,800 1,200 Climbing FlightAware
11:16PM 38.9780 -121.0410 36° Northeast 516 594 27,400 1,500 Climbing FlightAware
11:17PM 39.0450 -120.9750 37° Northeast 514 592 28,500 1,800 Climbing FlightAware
11:17PM 39.1140 -120.9090 37° Northeast 508 585 29,600 1,740 Climbing FlightAware
11:18PM 39.1820 -120.8430 37° Northeast 506 582 30,600 1,620 Climbing FlightAware
11:19PM 39.2410 -120.7850 37° Northeast 503 579 31,500 1,560 Climbing FlightAware
11:19PM 39.3070 -120.7200 37° Northeast 497 572 32,400 1,200 Climbing FlightAware
11:20PM 39.3730 -120.6560 37° Northeast 498 573 33,000 480 Climbing FlightAware
11:20PM 39.4330 -120.5980 37° Northeast 499 574 33,000  Level FlightAware
11:21PM 39.4990 -120.5320 38° Northeast 498 573 33,000  Level FlightAware
11:22PM 39.5640 -120.4670 38° Northeast 497 572 33,000  Level FlightAware
11:22PM 39.6340 -120.3970 38° Northeast 496 571 33,000 420 Level FlightAware
11:23PM 39.6880 -120.3440 37° Northeast 493 567 33,500 1,020 Climbing FlightAware
11:23PM 39.7560 -120.2760 38° Northeast 493 567 34,200 1,020 Climbing FlightAware
11:24PM 39.8230 -120.2110 37° Northeast 493 567 34,800 660 Climbing FlightAware
11:24PM 39.8870 -120.1460 38° Northeast 494 568 35,000 120 Climbing FlightAware
11:25PM 39.9460 -120.0860 38° Northeast 496 571 35,000  Level FlightAware
11:26PM 40.0110 -120.0210 37° Northeast 499 574 35,000  Level FlightAware
11:26PM 40.0730 -119.9590 37° Northeast 500 575 35,000  Level FlightAware
11:27PM 40.1360 -119.8960 37° Northeast 498 573 35,000  Level FlightAware
11:27PM 40.2020 -119.8300 37° Northeast 496 571 35,000  Level FlightAware
11:28PM 40.2660 -119.7630 39° Northeast 495 570 35,000  Level FlightAware
11:29PM 40.3310 -119.6970 38° Northeast 498 573 35,000  Level FlightAware
11:29PM 40.3890 -119.6350 39° Northeast 500 575 35,000  Level FlightAware
11:30PM 40.4500 -119.5570 44° Northeast 503 579 35,000  Level FlightAware
11:30PM 40.5100 -119.4830 43° Northeast 505 581 35,000  Level FlightAware
11:31PM 40.5720 -119.4050 44° Northeast 507 583 35,000  Level FlightAware
11:31PM 40.6260 -119.3390 43° Northeast 509 586 35,000  Level FlightAware
11:32PM 40.6880 -119.2620 43° Northeast 512 589 35,000  Level FlightAware
11:33PM 40.7570 -119.1760 43° Northeast 513 590 35,000  Level FlightAware
11:33PM 40.8060 -119.1140 44° Northeast 513 590 35,000  Level FlightAware
11:34PM 40.8770 -119.0260 43° Northeast 514 592 35,000  Level FlightAware
11:34PM 40.9310 -118.9590 43° Northeast 515 593 35,000  Level FlightAware
11:35PM 40.9940 -118.8790 44° Northeast 514 592 35,000  Level FlightAware
11:36PM 41.0730 -118.8010 37° Northeast 516 594 35,000  Level FlightAware
11:36PM 41.1450 -118.7440 31° Northeast 518 596 35,000  Level FlightAware
11:37PM 41.2070 -118.6910 33° Northeast 518 596 35,000  Level FlightAware
11:38PM 41.2680 -118.6380 33° Northeast 518 596 35,000  Level FlightAware
11:38PM 41.3600 -118.5610 32° Northeast 520 598 35,000  Level FlightAware
11:39PM 41.4210 -118.5090 33° Northeast 520 598 35,000  Level FlightAware
11:39PM 41.5030 -118.4170 40° Northeast 516 594 35,000  Level FlightAware
11:40PM 41.5610 -118.3330 47° Northeast 513 590 35,000  Level FlightAware
11:40PM 41.6160 -118.2540 47° Northeast 512 589 35,000  Level FlightAware
11:41PM 41.6750 -118.1700 47° Northeast 512 589 35,000  Level FlightAware
11:42PM 41.7320 -118.0860 48° Northeast 512 589 35,000  Level FlightAware
11:42PM 41.7830 -118.0110 48° Northeast 513 590 35,000  Level FlightAware
11:43PM 41.8410 -117.9270 47° Northeast 512 589 35,000  Level FlightAware
11:43PM 41.8990 -117.8420 47° Northeast 513 590 35,000  Level FlightAware
11:44PM 41.9490 -117.7660 48° Northeast 514 592 35,000  Level FlightAware
11:45PM 42.0080 -117.6790 48° Northeast 515 593 35,000  Level FlightAware
11:45PM 42.0660 -117.5950 47° Northeast 521 600 35,000  Level FlightAware
11:46PM 42.1250 -117.5060 48° Northeast 521 600 35,000  Level FlightAware
11:46PM 42.1760 -117.4320 47° Northeast 523 602 35,000  Level FlightAware
11:47PM 42.2350 -117.3420 48° Northeast 522 601 35,000  Level FlightAware
11:47PM 42.2920 -117.2570 48° Northeast 522 601 35,000  Level FlightAware
11:48PM 42.3500 -117.1700 48° Northeast 521 600 35,000  Level FlightAware
11:49PM 42.4080 -117.0830 48° Northeast 521 600 35,000  Level FlightAware
11:49PM 42.4600 -117.0050 48° Northeast 518 596 35,000  Level FlightAware
11:50PM 42.5170 -116.9180 48° Northeast 517 595 35,000  Level FlightAware
11:50PM 42.5740 -116.8310 48° Northeast 517 595 35,000  Level FlightAware
11:51PM 42.6320 -116.7410 49° Northeast 516 594 35,000  Level FlightAware
11:52PM 42.6820 -116.6660 48° Northeast 515 593 35,000  Level FlightAware
11:52PM 42.7420 -116.5720 49° Northeast 515 593 35,000  Level FlightAware
11:53PM 42.7980 -116.4860 48° Northeast 517 595 35,000  Level FlightAware
11:53PM 42.8490 -116.4080 48° Northeast 519 597 35,000  Level FlightAware
11:54PM 42.9050 -116.3220 48° Northeast 522 601 35,000  Level FlightAware
11:54PM 42.9640 -116.2300 49° Northeast 524 603 35,000  Level FlightAware
11:55PM 43.0150 -116.1510 49° Northeast 525 604 35,000  Level FlightAware
11:56PM 43.0730 -116.0600 49° Northeast 528 608 35,000  Level FlightAware
11:56PM 43.1310 -115.9700 49° Northeast 529 609 35,000  Level FlightAware
11:57PM 43.1900 -115.8760 49° Northeast 531 611 35,000  Level FlightAware
11:57PM 43.2410 -115.7950 49° Northeast 533 613 35,000  Level FlightAware
11:58PM 43.2990 -115.7030 49° Northeast 533 613 35,000  Level FlightAware
11:59PM 43.3600 -115.6080 49° Northeast 531 611 35,000  Level FlightAware
11:59PM 43.4120 -115.5270 49° Northeast 532 612 35,000  Level FlightAware
12:00AM 43.4690 -115.4340 50° Northeast 531 611 35,000  Level FlightAware
12:00AM 43.5300 -115.3370 49° Northeast 532 612 35,000  Level FlightAware
12:01AM 43.5820 -115.2520 50° Northeast 532 612 35,000  Level FlightAware
12:01AM 43.6370 -115.1650 49° Northeast 531 611 35,000  Level FlightAware
12:02AM 43.6940 -115.0740 49° Northeast 532 612 35,000  Level FlightAware
12:03AM 43.7550 -114.9760 49° Northeast 534 615 35,000  Level FlightAware
12:03AM 43.8050 -114.8930 50° Northeast 534 615 35,000  Level FlightAware
12:04AM 43.8640 -114.7960 50° Northeast 535 616 35,000  Level FlightAware
12:04AM 43.9220 -114.7050 48° Northeast 534 615 35,000  Level FlightAware
12:05AM 43.9780 -114.6110 50° Northeast 535 616 35,000  Level FlightAware
12:06AM 44.0290 -114.5270 50° Northeast 534 615 35,000  Level FlightAware
12:06AM 44.0840 -114.4380 49° Northeast 534 615 35,000  Level FlightAware
12:07AM 44.1390 -114.3460 50° Northeast 535 616 35,000  Level FlightAware
12:07AM 44.1950 -114.2530 50° Northeast 533 613 35,000  Level FlightAware
12:08AM 44.2560 -114.1530 50° Northeast 534 615 35,000  Level FlightAware
12:09AM 44.3060 -114.0700 50° Northeast 534 615 35,000  Level FlightAware
12:09AM 44.3540 -113.9890 50° Northeast 534 615 35,000  Level FlightAware
12:10AM 44.4030 -113.9080 50° Northeast 534 615 35,000  Level FlightAware
12:10AM 44.4520 -113.8270 50° Northeast 534 615 35,000  Level FlightAware
12:11AM 44.5000 -113.7460 50° Northeast 534 615 35,000  Level FlightAware
12:12AM 44.5490 -113.6650 50° Northeast 534 615 35,000  Level FlightAware
12:12AM 44.5990 -113.5810 50° Northeast 534 615 35,000  Level FlightAware
12:13AM 44.6470 -113.5000 50° Northeast 534 615 35,000  Level FlightAware
12:13AM 44.6960 -113.4180 50° Northeast 534 615 35,000  Level FlightAware
12:14AM 44.7440 -113.3370 50° Northeast 534 615 35,000  Level FlightAware
12:15AM 44.7930 -113.2550 50° Northeast 534 615 35,000  Level FlightAware
12:15AM 44.8420 -113.1730 50° Northeast 534 615 35,000  Level FlightAware
12:16AM 44.8900 -113.0920 50° Northeast 534 615 35,000  Level FlightAware
12:16AM 44.9390 -113.0100 50° Northeast 534 615 35,000  Level FlightAware
12:17AM 44.9870 -112.9280 50° Northeast 534 615 35,000  Level FlightAware
12:18AM 45.0360 -112.8460 50° Northeast 534 615 35,000  Level FlightAware
12:19AM 45.2594 -112.4261 50° Northeast 539 620 35,000  Level Salt Lake Center
12:20AM 45.3639 -112.2400 51° Northeast 538 619 35,000  Level Salt Lake Center
12:21AM 45.4581 -112.0728 51° Northeast 535 616 35,000  Level Salt Lake Center
12:22AM 45.5514 -111.9050 51° Northeast 538 619 35,000  Level Salt Lake Center
12:23AM 45.6453 -111.7350 52° Northeast 542 624 35,000  Level Salt Lake Center
12:24AM 45.7375 -111.5672 52° Northeast 537 618 35,000  Level Salt Lake Center
12:25AM 45.8311 -111.3981 52° Northeast 534 615 35,000  Level Salt Lake Center
12:26AM 45.9281 -111.2219 52° Northeast 544 626 35,000  Level Salt Lake Center
12:27AM 46.0206 -111.0464 53° Northeast 543 625 35,000  Level Salt Lake Center
12:28AM 46.1131 -110.8736 52° Northeast 540 621 35,000  Level Salt Lake Center
12:29AM 46.1958 -110.7181 52° Northeast 540 621 35,000  Level Salt Lake Center
12:30AM 46.2872 -110.5461 52° Northeast 541 623 35,000  Level Salt Lake Center
12:31AM 46.3794 -110.3711 53° Northeast 545 627 35,000  Level Salt Lake Center
12:32AM 46.4889 -110.1633 53° Northeast 542 624 35,000  Level Salt Lake Center
12:33AM 46.5808 -109.9858 53° Northeast 547 629 35,000  Level Salt Lake Center
12:34AM 46.6731 -109.8069 53° Northeast 551 634 35,000  Level Salt Lake Center
12:35AM 46.7636 -109.6253 54° Northeast 555 639 35,000  Level Salt Lake Center
12:36AM 46.8572 -109.4453 53° Northeast 559 643 35,000  Level Salt Lake Center
12:37AM 46.9461 -109.2669 54° Northeast 556 640 35,000  Level Salt Lake Center
12:38AM 47.0367 -109.0869 54° Northeast 552 635 35,000  Level Salt Lake Center
12:39AM 47.1292 -108.9025 54° Northeast 548 631 35,000  Level Salt Lake Center
12:40AM 47.2200 -108.7181 54° Northeast 556 640 35,000  Level Salt Lake Center
12:41AM 47.3086 -108.5397 54° Northeast 563 648 35,000  Level Salt Lake Center
12:42AM 47.3981 -108.3569 54° Northeast 556 640 35,000  Level Salt Lake Center
12:43AM 47.4869 -108.1733 54° Northeast 551 634 35,000  Level Salt Lake Center
12:44AM 47.5758 -107.9897 54° Northeast 551 634 35,000  Level Salt Lake Center
12:45AM 47.6822 -107.7661 55° Northeast 554 638 35,000  Level Salt Lake Center
12:46AM 47.7697 -107.5800 55° Northeast 553 636 35,000  Level Salt Lake Center
12:47AM 47.8594 -107.3947 54° Northeast 556 640 35,000  Level Salt Lake Center
12:48AM 47.9478 -107.2053 55° Northeast 558 642 35,000  Level Salt Lake Center
12:49AM 48.0358 -107.0150 55° Northeast 558 642 35,000  Level Salt Lake Center
12:50AM 48.1236 -106.8231 56° Northeast 558 642 35,000  Level Salt Lake Center
12:56AM 48.5430 -105.9600 56° Northeast 560 644 35,000  Level FlightAware
12:56AM 48.5920 -105.8620 53° Northeast 560 644 35,000  Level FlightAware
12:57AM 48.6410 -105.7630 53° Northeast 560 644 35,000  Level FlightAware
12:58AM 48.6890 -105.6670 53° Northeast 560 644 35,000  Level FlightAware
12:58AM 48.7360 -105.5720 53° Northeast 560 644 35,000  Level FlightAware
12:59AM 48.7840 -105.4750 53° Northeast 560 644 35,000  Level FlightAware
12:59AM 48.7470 -105.5360 227° Southwest 560 644 35,000  Level FlightAware
01:00AM 48.8090 -105.4050 54° Northeast 560 644 35,000  Level FlightAware
01:01AM 48.8870 -105.2430 54° Northeast 560 644 35,000  Level FlightAware
01:01AM 48.9440 -105.1230 54° Northeast 561 646 35,000  Level FlightAware
01:02AM 49.0340 -104.9280 55° Northeast 561 646 35,000  Level FlightAware
01:03AM 49.1260 -104.7320 54° Northeast 562 647 35,000  Level FlightAware
01:04AM 49.1920 -104.5940 54° Northeast 562 647 35,000  Level FlightAware
01:05AM 49.2480 -104.4700 55° Northeast 560 644 35,000  Level FlightAware
01:05AM 49.2930 -104.3720 55° Northeast 560 644 35,000  Level FlightAware
01:06AM 49.3400 -104.2740 54° Northeast 560 644 35,000  Level FlightAware
01:06AM 49.3880 -104.1730 54° Northeast 560 644 35,000  Level FlightAware
01:07AM 49.4340 -104.0740 54° Northeast 560 644 35,000  Level FlightAware
01:08AM 49.4810 -103.9750 54° Northeast 560 644 35,000  Level FlightAware
01:08AM 49.5290 -103.8740 54° Northeast 560 644 35,000  Level FlightAware
01:09AM 49.5750 -103.7750 54° Northeast 560 644 35,000  Level FlightAware
01:09AM 49.6220 -103.6760 54° Northeast 560 644 35,000  Level FlightAware
01:10AM 49.6690 -103.5770 54° Northeast 560 644 35,000  Level FlightAware
01:11AM 49.7150 -103.4780 54° Northeast 560 644 35,000  Level FlightAware
01:11AM 49.7620 -103.3790 54° Northeast 560 644 35,000  Level FlightAware
01:12AM 49.8080 -103.2790 54° Northeast 560 644 35,000  Level FlightAware
01:12AM 49.8550 -103.1800 54° Northeast 560 644 35,000  Level FlightAware
01:13AM 49.9010 -103.0800 54° Northeast 560 644 35,000  Level FlightAware
01:14AM 49.9480 -102.9810 54° Northeast 560 644 35,000  Level FlightAware
01:14AM 49.9950 -102.8810 54° Northeast 560 644 35,000  Level FlightAware
01:15AM 50.3310 -102.0050 59° Northeast 566 651 35,000  Level FlightAware
01:15AM 50.3840 -101.8810 56° Northeast 567 652 35,000  Level FlightAware
01:16AM 50.4370 -101.7590 56° Northeast 567 652 35,000  Level FlightAware
01:17AM 50.4950 -101.6130 58° Northeast 568 654 35,000  Level FlightAware
01:17AM 50.5360 -101.5160 56° Northeast 568 654 35,000  Level FlightAware
01:18AM 50.5810 -101.4050 57° Northeast 567 652 35,000  Level FlightAware
01:18AM 50.6330 -101.2770 57° Northeast 568 654 35,000  Level FlightAware
01:19AM 50.6930 -101.1310 57° Northeast 568 654 35,000  Level FlightAware
01:20AM 50.7380 -101.0210 57° Northeast 568 654 35,000  Level FlightAware
01:20AM 50.8000 -100.8650 58° Northeast 567 652 35,000  Level FlightAware
01:21AM 50.8450 -100.7530 57° Northeast 567 652 35,000  Level FlightAware
01:22AM 50.8940 -100.6300 58° Northeast 567 652 35,000  Level FlightAware
01:22AM 50.9490 -100.4940 57° Northeast 567 652 35,000  Level FlightAware
01:23AM 51.0020 -100.3560 59° Northeast 566 651 35,000  Level FlightAware
01:23AM 51.0540 -100.2260 57° Northeast 565 650 35,000  Level FlightAware
01:24AM 51.1200 -100.0570 58° Northeast 565 650 35,000  Level FlightAware
01:25AM 51.1700 -99.9290 58° Northeast 566 651 35,000  Level FlightAware
01:25AM 51.2170 -99.8050 59° Northeast 567 652 35,000  Level FlightAware
01:26AM 51.2620 -99.6870 59° Northeast 567 652 35,000  Level FlightAware
01:27AM 51.3110 -99.5660 57° Northeast 569 655 35,000  Level FlightAware
01:27AM 51.3600 -99.4330 59° Northeast 570 656 35,000  Level FlightAware
01:28AM 51.4090 -99.3060 58° Northeast 570 656 35,000  Level FlightAware
01:28AM 51.4520 -99.1960 58° Northeast 570 656 35,000  Level FlightAware
01:29AM 51.5050 -99.0480 60° Northeast 573 659 35,000  Level FlightAware
01:30AM 51.5610 -98.8950 59° Northeast 574 661 35,000  Level FlightAware
01:30AM 51.6080 -98.7710 59° Northeast 574 661 35,000  Level FlightAware
01:31AM 51.6700 -98.6020 59° Northeast 573 659 35,000  Level FlightAware
01:32AM 51.7240 -98.4590 59° Northeast 574 661 35,000  Level FlightAware
01:32AM 51.7650 -98.3480 59° Northeast 575 662 35,000  Level FlightAware
01:33AM 51.8080 -98.2320 59° Northeast 575 662 35,000  Level FlightAware
01:33AM 51.8500 -98.1190 59° Northeast 575 662 35,000  Level FlightAware
01:34AM 51.8910 -98.0060 60° Northeast 575 662 35,000  Level FlightAware
01:35AM 51.9330 -97.8930 59° Northeast 575 662 35,000  Level FlightAware
01:35AM 51.9750 -97.7800 59° Northeast 575 662 35,000  Level FlightAware
01:36AM 52.0170 -97.6660 59° Northeast 575 662 35,000  Level FlightAware
01:36AM 52.0600 -97.5500 59° Northeast 575 662 35,000  Level FlightAware
01:37AM 52.1030 -97.4330 59° Northeast 575 662 35,000  Level FlightAware
01:38AM 52.1450 -97.3190 59° Northeast 575 662 35,000  Level FlightAware
01:38AM 52.1870 -97.2060 59° Northeast 575 662 35,000  Level FlightAware
01:39AM 52.2290 -97.0920 59° Northeast 575 662 35,000  Level FlightAware
01:39AM 52.2710 -96.9780 59° Northeast 575 662 35,000  Level FlightAware
01:40AM 52.3140 -96.8600 59° Northeast 575 662 35,000  Level FlightAware
01:41AM 52.3560 -96.7460 59° Northeast 575 662 35,000  Level FlightAware
01:41AM 52.3980 -96.6320 59° Northeast 575 662 35,000  Level FlightAware
01:42AM 52.5667 -96.0500 59° Northeast 570 656 35,000  Level Winnipeg Center
01:43AM 52.6500 -95.8333 58° Northeast 580 667 35,000  Level Winnipeg Center
01:44AM 52.7333 -95.6167 58° Northeast 580 667 35,000  Level Winnipeg Center
01:45AM 52.8333 -95.3833 55° Northeast 570 656 35,000  Level Winnipeg Center
01:46AM 52.9167 -95.1667 57° Northeast 580 667 35,000  Level Winnipeg Center
01:47AM 52.9833 -94.9333 65° Northeast 580 667 35,000  Level Winnipeg Center
01:48AM 53.0667 -94.6833 61° Northeast 580 667 35,000  Level Winnipeg Center
01:49AM 53.1500 -94.4500 59° Northeast 580 667 35,000  Level Winnipeg Center
01:50AM 53.2500 -94.2167 54° Northeast 580 667 35,000  Level Winnipeg Center
01:51AM 53.3167 -94.0000 63° Northeast 580 667 35,000  Level Winnipeg Center
01:52AM 53.4000 -93.7333 62° Northeast 580 667 35,000  Level Winnipeg Center
01:53AM 53.5000 -93.5000 54° Northeast 590 679 35,000  Level Winnipeg Center
01:54AM 53.5667 -93.2667 64° Northeast 590 679 35,000  Level Winnipeg Center
01:55AM 53.6500 -93.0333 59° Northeast 590 679 35,000  Level Winnipeg Center
01:56AM 53.7167 -92.8000 64° Northeast 590 679 35,000  Level Winnipeg Center
01:57AM 53.8167 -92.5333 57° Northeast 590 679 35,000  Level Winnipeg Center
01:58AM 53.8833 -92.3000 64° Northeast 590 679 35,000  Level Winnipeg Center
01:59AM 53.9833 -92.0667 54° Northeast 590 679 35,000  Level Winnipeg Center
02:00AM 54.0500 -91.8333 64° Northeast 590 679 35,000  Level Winnipeg Center
02:01AM 54.1333 -91.5667 62° Northeast 590 679 35,000  Level Winnipeg Center
02:02AM 54.2000 -91.3167 65° Northeast 590 679 35,000  Level Winnipeg Center
02:03AM 54.2833 -91.0833 58° Northeast 590 679 35,000  Level Winnipeg Center
02:04AM 54.3667 -90.8167 62° Northeast 590 679 35,000  Level Winnipeg Center
02:05AM 54.4333 -90.5667 65° Northeast 590 679 35,000  Level Winnipeg Center
02:06AM 54.5167 -90.3167 60° Northeast 590 679 35,000  Level Winnipeg Center
02:07AM 54.5833 -90.0833 64° Northeast 590 679 35,000  Level Winnipeg Center
02:08AM 54.6333 -89.8167 72° East 590 679 35,000  Level Winnipeg Center
02:09AM 54.6833 -89.5167 74° East 600 690 35,000  Level Winnipeg Center
02:10AM 54.7167 -89.2500 78° East 590 679 35,000  Level Winnipeg Center
02:11AM 54.7667 -88.9667 73° East 600 690 35,000  Level Winnipeg Center
02:12AM 54.8000 -88.7000 78° East 600 690 35,000  Level Winnipeg Center
02:13AM 54.8500 -88.4000 74° East 600 690 35,000  Level Winnipeg Center
02:14AM 54.8833 -88.1333 78° East 600 690 35,000  Level Winnipeg Center
02:15AM 54.9333 -87.8500 73° East 600 690 35,000  Level Winnipeg Center
02:16AM 54.9500 -87.5500 84° East 600 690 35,000  Level Winnipeg Center
02:17AM 55.0000 -87.2833 72° East 600 690 35,000  Level Winnipeg Center
02:18AM 55.0333 -86.9833 79° East 600 690 35,000  Level Winnipeg Center
02:19AM 55.0667 -86.7000 78° East 600 690 35,000  Level Winnipeg Center
02:20AM 55.1000 -86.4000 79° East 600 690 35,000  Level Winnipeg Center
02:21AM 55.1500 -86.1333 72° East 600 690 35,000  Level Winnipeg Center
02:22AM 55.1667 -85.8167 85° East 600 690 35,000  Level Winnipeg Center
02:23AM 55.2000 -85.5500 78° East 600 690 35,000  Level Winnipeg Center
02:24AM 55.2333 -85.2667 78° East 600 690 35,000  Level Winnipeg Center
02:25AM 55.2667 -84.9667 79° East 610 702 35,000  Level Winnipeg Center
02:26AM 55.3000 -84.6833 78° East 600 690 35,000  Level Winnipeg Center
02:27AM 55.3333 -84.3833 79° East 600 690 35,000  Level Winnipeg Center
02:28AM 55.3500 -84.1000 84° East 600 690 35,000  Level Winnipeg Center
02:29AM 55.3833 -83.8167 78° East 630 725 35,000  Level Winnipeg Center
02:30AM 55.4167 -83.5167 79° East 600 690 35,000  Level Winnipeg Center
02:31AM 55.4500 -83.2333 78° East 600 690 35,000  Level Winnipeg Center
02:32AM 55.4667 -82.9667 84° East 600 690 35,000  Level Winnipeg Center
02:33AM 55.5000 -82.6167 80° East 590 679 35,000  Level Winnipeg Center
02:34AM 55.5167 -82.3500 84° East 600 690 35,000  Level Winnipeg Center
02:35AM 55.5500 -82.0667 78° East 600 690 35,000  Level Winnipeg Center
02:36AM 55.5667 -81.7833 84° East 600 690 35,000  Level Winnipeg Center
02:37AM 55.5833 -81.4833 84° East 600 690 35,000  Level Winnipeg Center
02:38AM 55.6000 -81.2000 84° East 600 690 35,000  Level Winnipeg Center
02:39AM 55.6167 -80.9167 84° East 600 690 35,000  Level Winnipeg Center
02:40AM 55.6500 -80.6000 79° East 600 690 35,000  Level Winnipeg Center
02:41AM 55.6667 -80.3167 84° East 600 690 35,000  Level Winnipeg Center
02:42AM 55.6833 -80.0500 84° East 600 690 35,000  Level Winnipeg Center
02:43AM 55.7167 -79.7500 79° East 600 690 35,000  Level Winnipeg Center
02:44AM 55.7833 -79.4833 66° East 590 679 35,000  Level Winnipeg Center
02:45AM 55.8333 -79.2167 71° East 600 690 35,000  Level Winnipeg Center
02:46AM 55.8833 -78.9167 73° East 600 690 35,000  Level Winnipeg Center
02:47AM 55.9500 -78.6333 67° East 590 679 35,000  Level Winnipeg Center
02:48AM 56.0167 -78.3333 68° East 600 690 35,000  Level Winnipeg Center
02:49AM 56.0667 -78.0500 72° East 600 690 35,000  Level Winnipeg Center
02:50AM 56.1167 -77.7833 71° East 600 690 35,000  Level Winnipeg Center
02:51AM 56.1667 -77.5167 71° East 610 702 35,000  Level Winnipeg Center
02:52AM 56.2333 -77.2000 69° East 600 690 35,000  Level Winnipeg Center
02:53AM 56.2667 -76.9333 77° East 600 690 35,000  Level Winnipeg Center
02:54AM 56.3333 -76.6500 67° East 600 690 35,000  Level Winnipeg Center
02:55AM 56.3833 -76.3667 72° East 600 690 35,000  Level Winnipeg Center
02:56AM 56.4167 -76.1000 77° East 600 690 35,000  Level Winnipeg Center
02:57AM 56.4833 -75.7833 69° East 600 690 35,000  Level Winnipeg Center
02:58AM 56.5333 -75.5000 72° East 600 690 35,000  Level Winnipeg Center
02:59AM 56.5667 -75.2333 77° East 600 690 35,000  Level Winnipeg Center
03:00AM 56.6167 -74.9500 72° East 590 679 35,000  Level Winnipeg Center
03:01AM 56.6667 -74.6667 72° East 600 690 35,000  Level Winnipeg Center
03:02AM 56.7500 -74.4333 57° Northeast 590 679 35,000  Level Montreal Center
03:03AM 56.8167 -74.1833 64° Northeast 590 679 35,000  Level Montreal Center
03:04AM 56.8500 -73.8667 79° East 590 679 35,000  Level Montreal Center
03:05AM 56.9000 -73.5833 72° East 600 690 35,000  Level Montreal Center
03:06AM 56.9500 -73.2833 73° East 600 690 35,000  Level Montreal Center
03:07AM 56.9667 -73.0000 84° East 600 690 35,000  Level Montreal Center
03:08AM 57.0333 -72.6833 69° East 600 690 35,000  Level Montreal Center
03:09AM 57.0833 -72.3667 74° East 600 690 35,000  Level Montreal Center
03:10AM 57.1167 -72.0833 78° East 590 679 35,000  Level Montreal Center
03:11AM 57.1667 -71.8000 72° East 590 679 35,000  Level Montreal Center
03:12AM 57.2000 -71.4833 79° East 590 679 35,000  Level Montreal Center
03:13AM 57.2333 -71.2000 78° East 590 679 35,000  Level Montreal Center
03:14AM 57.2833 -70.8833 74° East 590 679 35,000  Level Montreal Center
03:15AM 57.3000 -70.6000 84° East 590 679 35,000  Level Montreal Center
03:16AM 57.3333 -70.3167 78° East 590 679 35,000  Level Montreal Center
03:17AM 57.3833 -70.0333 72° East 590 679 35,000  Level Montreal Center
03:18AM 57.4167 -69.7167 79° East 590 679 35,000  Level Montreal Center
03:19AM 57.4500 -69.4167 78° East 580 667 35,000  Level Montreal Center
03:20AM 57.4833 -69.1000 79° East 580 667 35,000  Level Montreal Center
03:21AM 57.5167 -68.8167 78° East 580 667 35,000  Level Montreal Center
03:22AM 57.5500 -68.5167 78° East 580 667 35,000  Level Montreal Center
03:23AM 57.5833 -68.2333 78° East 580 667 35,000  Level Montreal Center
03:24AM 57.6167 -67.9333 78° East 580 667 35,000  Level Montreal Center
03:25AM 57.6500 -67.6167 79° East 580 667 35,000  Level Montreal Center
03:26AM 57.6667 -67.3333 84° East 580 667 35,000  Level Montreal Center
03:27AM 57.7000 -67.0333 78° East 580 667 35,000  Level Montreal Center
03:28AM 57.7167 -66.7500 84° East 580 667 35,000  Level Montreal Center
03:29AM 57.7500 -66.4167 79° East 570 656 35,000  Level Montreal Center
03:30AM 57.7833 -66.1333 77° East 570 656 35,000  Level Montreal Center
03:31AM 57.8000 -65.8333 84° East 570 656 35,000  Level Montreal Center
03:32AM 57.8333 -65.5333 78° East 570 656 35,000  Level Montreal Center
03:33AM 57.8667 -65.2500 77° East 570 656 35,000  Level Montreal Center
03:34AM 57.8833 -64.9500 84° East 570 656 35,000  Level Montreal Center
03:35AM 57.9000 -64.6667 84° East 560 644 35,000  Level Montreal Center
03:36AM 57.9167 -64.4000 83° East 560 644 35,000  Level Montreal Center
03:37AM 57.9500 -64.1000 78° East 560 644 35,000  Level Montreal Center
03:38AM 57.9667 -63.8000 84° East 560 644 35,000  Level Montreal Center
03:39AM 58.0000 -63.5000 78° East 570 656 35,000  Level Montreal Center
03:40AM 58.0000 -63.2167 90° East 570 656 35,000  Level Montreal Center
03:41AM 58.0167 -62.9167 84° East 570 656 35,000  Level Montreal Center
03:42AM 58.0167 -62.6000 90° East 560 644 35,000  Level Montreal Center
03:43AM 58.0167 -62.3000 90° East 570 656 35,000  Level Montreal Center
03:44AM 58.0333 -62.0167 84° East 560 644 35,000  Level Montreal Center
03:45AM 58.0333 -61.7500 90° East 550 633 35,000  Level Montreal Center
03:46AM 58.0167 -61.4667 96° East 550 633 35,000  Level Montreal Center
03:47AM 58.0333 -61.1667 84° East 560 644 35,000  Level Montreal Center
03:48AM 58.0333 -60.8833 90° East 560 644 35,000  Level Montreal Center
03:49AM 58.0333 -60.5500 90° East 560 644 35,000  Level Montreal Center
03:50AM 58.0333 -60.2667 90° East 560 644 35,000  Level Montreal Center
03:51AM 58.0333 -59.9833 90° East 560 644 35,000  Level Montreal Center
03:52AM 58.0500 -59.6833 84° East 560 644 35,000  Level Montreal Center
03:53AM 58.1000 -59.4000 71° East 560 644 35,000  Level Montreal Center
03:54AM 58.1333 -59.1167 77° East 560 644 35,000  Level Montreal Center
03:55AM 58.1500 -58.8500 83° East 560 644 35,000  Level Montreal Center
03:56AM 58.2000 -58.5333 73° East 560 644 35,000  Level Montreal Center
03:57AM 58.2333 -58.3000 75° East 560 644 35,000  Level Gander Center
03:58AM 58.2667 -58.0167 77° East 560 644 35,000  Level Gander Center
03:59AM 58.3000 -57.7333 77° East 550 633 35,000  Level Gander Center
04:00AM 58.3333 -57.4667 76° East 550 633 35,000  Level Gander Center
04:01AM 58.3667 -57.1833 77° East 550 633 35,000  Level Gander Center
04:02AM 58.4000 -56.9000 77° East 550 633 35,000  Level Gander Center
04:03AM 58.4333 -56.6000 78° East 550 633 35,000  Level Gander Center
04:04AM 58.4667 -56.3500 76° East 540 621 35,000  Level Gander Center
04:05AM 58.5000 -56.0833 76° East 530 610 35,000  Level Gander Center
04:06AM 58.5167 -55.7833 84° East 530 610 35,000  Level Gander Center
04:07AM 58.5500 -55.5333 76° East 520 598 35,000  Level Gander Center
04:08AM 58.5667 -55.2667 83° East 510 587 35,000  Level Gander Center
04:09AM 58.6000 -54.9833 77° East 510 587 35,000  Level Gander Center
04:10AM 58.6333 -54.7167 76° East 510 587 35,000  Level Gander Center
04:11AM 58.6500 -54.5167 81° East 500 575 35,000  Level Gander Center
04:13AM 58.6810 -54.1883 80° East  Level FlightAware Approximate
04:20AM 58.8475 -52.2343 80° East  Level FlightAware Approximate
04:21AM 58.8688 -51.9537 82° East  Level FlightAware Approximate
04:22AM 58.8895 -51.6727 82° East  Level FlightAware Approximate
04:23AM 58.9097 -51.3914 82° East  Level FlightAware Approximate
04:24AM 58.9292 -51.1098 82° East  Level FlightAware Approximate
04:25AM 58.9481 -50.8279 82° East  Level FlightAware Approximate
04:26AM 58.9664 -50.5457 83° East  Level FlightAware Approximate
04:27AM 58.9841 -50.2631 83° East  Level FlightAware Approximate
04:28AM 59.0008 -49.9803 86° East  Level FlightAware Approximate
04:29AM 59.0114 -49.6962 86° East  Level FlightAware Approximate
04:30AM 59.0214 -49.4119 86° East  Level FlightAware Approximate
04:31AM 59.0307 -49.1275 86° East  Level FlightAware Approximate
04:32AM 59.0395 -48.8429 86° East  Level FlightAware Approximate
04:33AM 59.0476 -48.5581 87° East  Level FlightAware Approximate
04:34AM 59.0551 -48.2733 87° East  Level FlightAware Approximate
04:35AM 59.0620 -47.9883 87° East  Level FlightAware Approximate
04:36AM 59.0682 -47.7032 87° East  Level FlightAware Approximate
04:37AM 59.0738 -47.4180 88° East  Level FlightAware Approximate
04:38AM 59.0788 -47.1328 88° East  Level FlightAware Approximate
04:39AM 59.0832 -46.8474 88° East  Level FlightAware Approximate
04:40AM 59.0870 -46.5620 88° East  Level FlightAware Approximate
04:41AM 59.0901 -46.2765 89° East  Level FlightAware Approximate
04:42AM 59.0926 -45.9910 89° East  Level FlightAware Approximate
04:43AM 59.0944 -45.7054 89° East  Level FlightAware Approximate
04:44AM 59.0957 -45.4199 89° East  Level FlightAware Approximate
04:45AM 59.0963 -45.1343 90° East  Level FlightAware Approximate
04:46AM 59.0963 -44.8487 90° East  Level FlightAware Approximate
04:47AM 59.0956 -44.5631 90° East  Level FlightAware Approximate
04:48AM 59.0943 -44.2775 90° East  Level FlightAware Approximate
04:49AM 59.0924 -43.9919 91° East  Level FlightAware Approximate
04:50AM 59.0899 -43.7064 91° East  Level FlightAware Approximate
04:51AM 59.0868 -43.4209 91° East  Level FlightAware Approximate
04:52AM 59.0830 -43.1355 91° East  Level FlightAware Approximate
04:53AM 59.0786 -42.8502 92° East  Level FlightAware Approximate
04:54AM 59.0735 -42.5649 92° East  Level FlightAware Approximate
04:55AM 59.0679 -42.2797 92° East  Level FlightAware Approximate
04:56AM 59.0616 -41.9947 92° East  Level FlightAware Approximate
04:57AM 59.0547 -41.7097 93° East  Level FlightAware Approximate
04:58AM 59.0471 -41.4248 93° East  Level FlightAware Approximate
04:59AM 59.0390 -41.1401 93° East  Level FlightAware Approximate
05:00AM 59.0302 -40.8555 93° East  Level FlightAware Approximate
05:01AM 59.0208 -40.5711 94° East  Level FlightAware Approximate
05:02AM 59.0108 -40.2868 94° East  Level FlightAware Approximate
05:03AM 59.0001 -40.0027 94° East  Level FlightAware Approximate
05:04AM 59.0106 -39.7187 86° East  Level FlightAware Approximate
05:05AM 59.0206 -39.4344 86° East  Level FlightAware Approximate
05:06AM 59.0300 -39.1500 86° East  Level FlightAware Approximate
05:07AM 59.0388 -38.8654 86° East  Level FlightAware Approximate
05:08AM 59.0470 -38.5807 87° East  Level FlightAware Approximate
05:09AM 59.0545 -38.2958 87° East  Level FlightAware Approximate
05:10AM 59.0615 -38.0109 87° East  Level FlightAware Approximate
05:11AM 59.0678 -37.7258 87° East  Level FlightAware Approximate
05:12AM 59.0734 -37.4406 88° East  Level FlightAware Approximate
05:13AM 59.0785 -37.1553 88° East  Level FlightAware Approximate
05:14AM 59.0829 -36.8700 88° East  Level FlightAware Approximate
05:15AM 59.0867 -36.5846 88° East  Level FlightAware Approximate
05:16AM 59.0899 -36.2991 89° East  Level FlightAware Approximate
05:17AM 59.0924 -36.0136 89° East  Level FlightAware Approximate
05:18AM 59.0943 -35.7281 89° East  Level FlightAware Approximate
05:19AM 59.0956 -35.4425 89° East  Level FlightAware Approximate
05:20AM 59.0963 -35.1569 90° East  Level FlightAware Approximate
05:21AM 59.0963 -34.8713 90° East  Level FlightAware Approximate
05:22AM 59.0957 -34.5857 90° East  Level FlightAware Approximate
05:23AM 59.0945 -34.3001 90° East  Level FlightAware Approximate
05:24AM 59.0926 -34.0145 91° East  Level FlightAware Approximate
05:25AM 59.0901 -33.7290 91° East  Level FlightAware Approximate
05:26AM 59.0870 -33.4435 91° East  Level FlightAware Approximate
05:27AM 59.0833 -33.1581 91° East  Level FlightAware Approximate
05:28AM 59.0789 -32.8728 92° East  Level FlightAware Approximate
05:29AM 59.0740 -32.5875 92° East  Level FlightAware Approximate
05:30AM 59.0684 -32.3023 92° East  Level FlightAware Approximate
05:31AM 59.0621 -32.0172 92° East  Level FlightAware Approximate
05:32AM 59.0552 -31.7322 93° East  Level FlightAware Approximate
05:33AM 59.0478 -31.4474 93° East  Level FlightAware Approximate
05:34AM 59.0396 -31.1626 93° East  Level FlightAware Approximate
05:35AM 59.0309 -30.8780 93° East  Level FlightAware Approximate
05:36AM 59.0215 -30.5936 94° East  Level FlightAware Approximate
05:37AM 59.0116 -30.3093 94° East  Level FlightAware Approximate
05:38AM 59.0010 -30.0252 94° East  Level FlightAware Approximate
05:39AM 58.9845 -29.7423 97° East  Level FlightAware Approximate
05:40AM 58.9669 -29.4598 97° East  Level FlightAware Approximate
05:41AM 58.9487 -29.1775 97° East  Level FlightAware Approximate
05:42AM 58.9299 -28.8955 97° East  Level FlightAware Approximate
05:43AM 58.9105 -28.6139 97° East  Level FlightAware Approximate
05:44AM 58.8905 -28.3326 98° East  Level FlightAware Approximate
05:45AM 58.8699 -28.0516 98° East  Level FlightAware Approximate
05:46AM 58.8486 -27.7709 98° East  Level FlightAware Approximate
05:47AM 58.8267 -27.4906 98° East  Level FlightAware Approximate
05:48AM 58.8043 -27.2107 99° East  Level FlightAware Approximate
05:49AM 58.7812 -26.9311 99° East  Level FlightAware Approximate
05:50AM 58.7575 -26.6519 99° East  Level FlightAware Approximate
05:51AM 58.7332 -26.3731 99° East  Level FlightAware Approximate
05:52AM 58.7084 -26.0947 100° East  Level FlightAware Approximate
05:53AM 58.6829 -25.8167 100° East  Level FlightAware Approximate
05:54AM 58.6568 -25.5390 100° East  Level FlightAware Approximate
05:55AM 58.6301 -25.2619 100° East  Level FlightAware Approximate
05:56AM 58.6029 -24.9851 101° East  Level FlightAware Approximate
05:57AM 58.5750 -24.7088 101° East  Level FlightAware Approximate
05:58AM 58.5466 -24.4329 101° East  Level FlightAware Approximate
05:59AM 58.5175 -24.1575 101° East  Level FlightAware Approximate
06:00AM 58.4879 -23.8825 102° East  Level FlightAware Approximate
06:01AM 58.4576 -23.6080 102° East  Level FlightAware Approximate
06:02AM 58.4268 -23.3340 102° East  Level FlightAware Approximate
06:03AM 58.3955 -23.0604 102° East  Level FlightAware Approximate
06:04AM 58.3635 -22.7874 102° East  Level FlightAware Approximate
06:05AM 58.3309 -22.5148 103° East  Level FlightAware Approximate
06:06AM 58.2978 -22.2428 103° East  Level FlightAware Approximate
06:07AM 58.2641 -21.9712 103° East  Level FlightAware Approximate
06:08AM 58.2298 -21.7002 103° East  Level FlightAware Approximate
06:09AM 58.1950 -21.4297 104° East  Level FlightAware Approximate
06:10AM 58.1595 -21.1598 104° East  Level FlightAware Approximate
06:11AM 58.1236 -20.8904 104° East  Level FlightAware Approximate
06:12AM 58.0870 -20.6215 104° East  Level FlightAware Approximate
06:13AM 58.0499 -20.3532 105° East  Level FlightAware Approximate
06:14AM 58.0122 -20.0855 105° East  Level FlightAware Approximate
06:15AM 57.9627 -19.8254 112° Southeast  Level FlightAware Approximate
06:16AM 57.9073 -19.5695 112° Southeast  Level FlightAware Approximate
06:17AM 57.8515 -19.3144 112° Southeast  Level FlightAware Approximate
06:18AM 57.7952 -19.0601 112° Southeast  Level FlightAware Approximate
06:19AM 57.7383 -18.8066 113° Southeast  Level FlightAware Approximate
06:20AM 57.6809 -18.5539 113° Southeast  Level FlightAware Approximate
06:21AM 57.6231 -18.3019 113° Southeast  Level FlightAware Approximate
06:22AM 57.5647 -18.0508 113° Southeast  Level FlightAware Approximate
06:23AM 57.5059 -17.8005 114° Southeast  Level FlightAware Approximate
06:24AM 57.4465 -17.5510 114° Southeast  Level FlightAware Approximate
06:25AM 57.3867 -17.3023 114° Southeast  Level FlightAware Approximate
06:26AM 57.3263 -17.0545 114° Southeast  Level FlightAware Approximate
06:27AM 57.2655 -16.8074 114° Southeast  Level FlightAware Approximate
06:28AM 57.2042 -16.5612 115° Southeast  Level FlightAware Approximate
06:29AM 57.1424 -16.3157 115° Southeast  Level FlightAware Approximate
06:30AM 57.0802 -16.0711 115° Southeast  Level FlightAware Approximate
06:31AM 57.0175 -15.8274 115° Southeast  Level FlightAware Approximate
06:32AM 56.9543 -15.5844 115° Southeast  Level FlightAware Approximate
06:33AM 56.8906 -15.3423 116° Southeast  Level FlightAware Approximate
06:34AM 56.8265 -15.1010 116° Southeast  Level FlightAware Approximate
06:35AM 56.7619 -14.8605 116° Southeast  Level FlightAware Approximate
06:36AM 56.6986 -14.6193 115° Southeast  Level FlightAware Approximate
06:37AM 56.6353 -14.3785 115° Southeast  Level FlightAware Approximate
06:38AM 56.5715 -14.1386 116° Southeast  Level FlightAware Approximate
06:39AM 56.5072 -13.8994 116° Southeast  Level FlightAware Approximate
06:40AM 56.4425 -13.6611 116° Southeast  Level FlightAware Approximate
06:41AM 56.3760 -13.4248 117° Southeast  Level FlightAware Approximate
06:42AM 56.3082 -13.1901 117° Southeast  Level FlightAware Approximate
06:43AM 56.2400 -12.9562 118° Southeast  Level FlightAware Approximate
06:44AM 56.1713 -12.7232 118° Southeast  Level FlightAware Approximate
06:45AM 56.1022 -12.4909 118° Southeast  Level FlightAware Approximate
06:46AM 56.0327 -12.2596 118° Southeast  Level FlightAware Approximate
06:47AM 55.9627 -12.0291 118° Southeast  Level FlightAware Approximate
06:48AM 55.8923 -11.7994 119° Southeast  Level FlightAware Approximate
06:49AM 55.8215 -11.5705 119° Southeast  Level FlightAware Approximate
06:50AM 55.7502 -11.3425 119° Southeast  Level FlightAware Approximate
06:51AM 55.6785 -11.1153 119° Southeast  Level FlightAware Approximate
06:52AM 55.6064 -10.8889 119° Southeast  Level FlightAware Approximate
06:53AM 55.5339 -10.6634 120° Southeast  Level FlightAware Approximate
06:54AM 55.4610 -10.4387 120° Southeast  Level FlightAware Approximate
06:55AM 55.3877 -10.2149 120° Southeast  Level FlightAware Approximate
06:55AM 55.7250 -12.4130 120° Southeast 509 586 37,000  Level FlightAware
06:56AM 55.3139 -9.9918 120° Southeast  Level FlightAware Approximate
06:56AM 55.6750 -12.2550 119° Southeast 517 595 37,000  Level FlightAware
06:56AM 55.6430 -12.1370 116° Southeast 518 596 37,000  Level FlightAware
06:57AM 55.5990 -11.9840 117° Southeast 517 595 37,000  Level FlightAware
06:57AM 55.5620 -11.8550 117° Southeast 517 595 37,000  Level FlightAware
06:58AM 55.5230 -11.7220 117° Southeast 518 596 37,000  Level FlightAware
06:59AM 55.4860 -11.5900 116° Southeast 518 596 37,000  Level FlightAware
06:59AM 55.4460 -11.4580 118° Southeast 518 596 37,000  Level FlightAware
07:00AM 55.4070 -11.3220 117° Southeast 523 602 37,000  Level FlightAware
07:00AM 55.3690 -11.1930 117° Southeast 524 603 37,000  Level FlightAware
07:01AM 55.3290 -11.0570 117° Southeast 526 605 37,000  Level FlightAware
07:01AM 55.2900 -10.9250 117° Southeast 524 603 37,000  Level FlightAware
07:02AM 55.2500 -10.7930 118° Southeast 524 603 37,000  Level FlightAware
07:03AM 55.2110 -10.6620 118° Southeast 525 604 37,000  Level FlightAware
07:03AM 55.1710 -10.5270 117° Southeast 524 603 37,000  Level FlightAware
07:04AM 55.1320 -10.4000 118° Southeast 524 603 37,000  Level FlightAware
07:04AM 55.0920 -10.2690 118° Southeast 521 600 37,000  Level FlightAware
07:05AM 55.0520 -10.1390 118° Southeast 520 598 37,000  Level FlightAware
07:06AM 55.0120 -10.0100 118° Southeast 517 595 37,000  Level FlightAware
07:06AM 54.9720 -9.8810 118° Southeast 514 592 37,000  Level FlightAware
07:07AM 54.9330 -9.7570 119° Southeast 514 592 37,000  Level FlightAware
07:07AM 54.8920 -9.6250 118° Southeast 514 592 37,000  Level FlightAware
07:08AM 54.8520 -9.4980 119° Southeast 514 592 37,000  Level FlightAware
07:08AM 54.8120 -9.3710 119° Southeast 514 592 37,000  Level FlightAware
07:09AM 54.7710 -9.2440 119° Southeast 515 593 37,000  Level FlightAware
07:10AM 54.7310 -9.1170 119° Southeast 514 592 37,000  Level FlightAware
07:10AM 54.6900 -8.9900 119° Southeast 514 592 37,000  Level FlightAware
07:10AM 54.6862 -8.9759 119° Southeast 488 562 37,000  Level FlightAware UK
07:11AM 54.6510 -8.8678 119° Southeast 490 564 37,000  Level FlightAware UK
07:11AM 54.6430 -8.8460 119° Southeast 514 592 37,000  Level FlightAware
07:11AM 54.6030 -8.7200 119° Southeast 513 590 37,000  Level FlightAware
07:12AM 54.5610 -8.5950 120° Southeast 512 589 37,000  Level FlightAware
07:13AM 54.5150 -8.4520 119° Southeast 511 588 37,000  Level FlightAware
07:13AM 54.4800 -8.3460 119° Southeast 511 588 37,000  Level FlightAware
07:13AM 54.4747 -8.3305 119° Southeast 486 559 37,000  Level FlightAware UK
07:14AM 54.4395 -8.2242 119° Southeast 484 557 37,000  Level FlightAware UK
07:14AM 54.4390 -8.2250 119° Southeast 514 592 37,000  Level FlightAware
07:14AM 54.3910 -8.0800 120° Southeast 514 592 37,000  Level FlightAware
07:15AM 54.3490 -7.9560 120° Southeast 517 595 37,000  Level FlightAware
07:16AM 54.3140 -7.8500 119° Southeast 518 596 37,000  Level FlightAware
07:16AM 54.2710 -7.7260 121° Southeast 518 596 37,000  Level FlightAware
07:17AM 54.2300 -7.6020 119° Southeast 519 597 37,000  Level FlightAware
07:17AM 54.1860 -7.4790 121° Southeast 519 597 37,000  Level FlightAware
07:18AM 54.1460 -7.3590 120° Southeast 518 596 37,000  Level FlightAware
07:18AM 54.1020 -7.2320 121° Southeast 515 593 37,000  Level FlightAware
07:19AM 54.0600 -7.1110 121° Southeast 514 592 37,000  Level FlightAware
07:20AM 54.0110 -6.9720 121° Southeast 510 587 37,000  Level FlightAware
07:20AM 53.9695 -6.8520 121° Southeast 484 557 37,000  Level FlightAware UK
07:20AM 53.9690 -6.8500 121° Southeast 509 586 37,000  Level FlightAware
07:21AM 53.9210 -6.7160 121° Southeast 511 588 37,000  Level FlightAware
07:22AM 53.8780 -6.5930 121° Southeast 510 587 37,000  Level FlightAware
07:22AM 53.8340 -6.4700 121° Southeast 510 587 37,000  Level FlightAware
07:23AM 53.7900 -6.3470 121° Southeast 509 586 37,000  Level FlightAware
07:23AM 53.7504 -6.2366 121° Southeast 478 550 37,000  Level FlightAware UK
07:23AM 53.7510 -6.2390 121° Southeast 509 586 37,000  Level FlightAware
07:24AM 53.7137 -6.1351 121° Southeast 478 550 37,000  Level FlightAware UK
07:24AM 53.7070 -6.1200 121° Southeast 511 588 37,000  Level FlightAware
07:24AM 53.6630 -5.9980 121° Southeast 512 589 37,000  Level FlightAware
07:25AM 53.6180 -5.8760 122° Southeast 514 592 37,000  Level FlightAware
07:26AM 53.5720 -5.7500 122° Southeast 515 593 37,000  Level FlightAware
07:26AM 53.5320 -5.6410 122° Southeast 515 593 37,000  Level FlightAware
07:26AM 53.5268 -5.6252 122° Southeast 480 552 37,000  Level FlightAware UK
07:27AM 53.4929 -5.5196 122° Southeast 478 550 37,000  Level FlightAware UK
07:27AM 53.4910 -5.5110 122° Southeast 520 598 37,000  Level FlightAware
07:27AM 53.4760 -5.3720 100° East 526 605 37,000  Level FlightAware
07:28AM 53.4710 -5.2210 93° East 526 605 37,000  Level FlightAware
07:29AM 53.4680 -5.0910 92° East 526 605 37,000  Level FlightAware
07:29AM 53.4640 -4.9410 93° East 525 604 37,000  Level FlightAware
07:30AM 53.4590 -4.7990 93° East 524 603 37,000  Level FlightAware
07:30AM 53.4540 -4.6530 93° East 523 602 37,000  Level FlightAware
07:31AM 53.4490 -4.5070 93° East 521 600 37,000  Level FlightAware
07:31AM 53.4446 -4.3786 93° East 472 543 37,000  Level FlightAware UK
07:32AM 53.4440 -4.3630 93° East 520 598 37,000  Level FlightAware
07:32AM 53.4380 -4.2190 94° East 519 597 37,000  Level FlightAware
07:33AM 53.4330 -4.0820 93° East 518 596 37,000  Level FlightAware
07:33AM 53.4280 -3.9510 94° East 517 595 37,000  Level FlightAware
07:34AM 53.4210 -3.7950 94° East 516 594 37,000  Level FlightAware
07:34AM 53.4190 -3.7397 93° East 518 596 37,000  Level FlightAware ADS-B
07:35AM 53.3869 -3.4956 102° East 513 590 37,000  Level FlightAware ADS-B
07:36AM 53.3562 -3.3849 115° Southeast 510 587 37,000  Level FlightAware ADS-B
07:36AM 53.3243 -3.2753 116° Southeast 508 585 37,000  Level FlightAware ADS-B
07:37AM 53.2919 -3.1664 116° Southeast 507 583 37,000  Level FlightAware ADS-B
07:37AM 53.2524 -3.0340 116° Southeast 505 581 37,000  Level FlightAware ADS-B
07:38AM 53.2202 -2.9296 117° Southeast 504 580 37,000  Level FlightAware ADS-B
07:38AM 53.1878 -2.8223 117° Southeast 505 581 37,000 -420 Level FlightAware ADS-B
07:39AM 53.1412 -2.6688 117° Southeast 503 579 36,500 -1,020 Descending FlightAware ADS-B
07:40AM 53.1067 -2.5552 117° Southeast 471 542 35,700 -1,440 Descending FlightAware ADS-B
07:40AM 53.0730 -2.4550 119° Southeast 459 528 34,900 -1,680 Descending FlightAware
07:41AM 53.0325 -2.3826 133° Southeast 464 534 34,000 -1,860 Descending FlightAware ADS-B
07:41AM 52.9677 -2.3191 133° Southeast 424 488 32,900 -1,740 Descending FlightAware UK
07:41AM 52.9570 -2.3110 133° Southeast 417 480 32,700 -2,220 Descending FlightAware
07:42AM 52.8990 -2.2520 148° Southeast 418 481 31,300 -2,100 Descending FlightAware
07:43AM 52.8470 -2.1880 143° Southeast 410 472 30,300 -1,980 Descending FlightAware
07:43AM 52.7872 -2.1167 143° Southeast 390 449 29,000 -1,920 Descending FlightAware UK
07:43AM 52.7900 -2.1210 143° Southeast 405 466 29,100 -1,740 Climbing FlightAware
07:44AM 52.7410 -2.0640 145° Southeast 401 461 28,100 -1,860 Descending FlightAware
07:44AM 52.6880 -2.0030 145° Southeast 396 456 27,000 -1,860 Descending FlightAware
07:45AM 52.6440 -1.9537 146° Southeast 393 452 26,200 -1,740 Descending FlightAware ADS-B
07:45AM 52.5950 -1.8978 145° Southeast 390 449 25,300 -1,620 Descending FlightAware ADS-B
07:46AM 52.5444 -1.8391 145° Southeast 384 442 24,400 -1,620 Descending FlightAware ADS-B
07:46AM 52.5009 -1.7894 145° Southeast 380 437 23,600 -1,680 Descending FlightAware ADS-B
07:47AM 52.4544 -1.7358 145° Southeast 375 432 22,700 -1,680 Descending FlightAware ADS-B
07:48AM 52.4118 -1.6873 145° Southeast 371 427 21,900 -1,560 Descending FlightAware ADS-B
07:48AM 52.3734 -1.6435 145° Southeast 370 426 21,200 -1,500 Descending FlightAware ADS-B
07:48AM 52.3631 -1.6289 139° Southeast 371 427 21,000 -1,500 Descending FlightAware ADS-B
07:49AM 52.3228 -1.5660 136° Southeast 367 422 20,200 -1,500 Descending FlightAware ADS-B
07:49AM 52.3028 -1.5353 137° Southeast 365 420 19,800 -1,680 Descending FlightAware ADS-B
07:49AM 52.2671 -1.4703 132° Southeast 362 417 18,900 -1,560 Descending FlightAware ADS-B
07:50AM 52.2334 -1.4095 132° Southeast 359 413 18,200 -1,500 Descending FlightAware ADS-B
07:50AM 52.1998 -1.3497 133° Southeast 357 411 17,400 -1,500 Descending FlightAware ADS-B
07:51AM 52.1662 -1.2906 133° Southeast 354 407 16,700 -1,500 Descending FlightAware ADS-B
07:51AM 52.1319 -1.2301 133° Southeast 352 405 15,900 -1,380 Descending FlightAware ADS-B
07:52AM 52.0985 -1.1704 132° Southeast 348 400 15,300 -1,140 Descending FlightAware ADS-B
07:52AM 52.0659 -1.1138 133° Southeast 342 394 14,800 -840 Descending FlightAware ADS-B
07:53AM 52.0331 -1.0587 134° Southeast 333 383 14,500 -540 Descending FlightAware ADS-B
07:54AM 52.0009 -1.0041 134° Southeast 320 368 14,300 -420 Descending FlightAware ADS-B
07:54AM 51.9698 -0.9518 134° Southeast 310 357 14,100 -840 Descending FlightAware ADS-B
07:55AM 51.9391 -0.9026 135° Southeast 305 351 13,500 -1,140 Descending FlightAware ADS-B
07:55AM 51.9094 -0.8537 135° Southeast 305 351 13,000 -840 Descending FlightAware ADS-B
07:56AM 51.8794 -0.8029 134° Southeast 303 349 12,700 -1,020 Descending FlightAware ADS-B
07:56AM 51.8500 -0.7542 134° Southeast 304 350 12,000 -1,440 Descending FlightAware ADS-B
07:57AM 51.8197 -0.7039 134° Southeast 304 350 11,300 -1,320 Descending FlightAware ADS-B
07:57AM 51.7901 -0.6552 134° Southeast 303 349 10,700 -1,140 Descending FlightAware ADS-B
07:58AM 51.7605 -0.6071 135° Southeast 297 342 10,200 -1,080 Descending FlightAware ADS-B
07:58AM 51.7455 -0.5820 134° Southeast 295 339 9,900 -1,200 Descending FlightAware ADS-B
07:58AM 51.7309 -0.5585 135° Southeast 293 337 9,600 -1,200 Descending FlightAware ADS-B
07:58AM 51.7166 -0.5354 135° Southeast 291 335 9,300 -960 Descending FlightAware ADS-B
07:58AM 51.7124 -0.5299 141° Southeast 289 333 9,300  Level FlightAware ADS-B
07:58AM 51.7084 -0.5250 143° Southeast 287 330 9,300  Level FlightAware ADS-B
07:59AM 51.7048 -0.5220 152° Southeast 284 327 9,300  Level FlightAware ADS-B
07:59AM 51.6983 -0.5182 160° South 279 321 9,300 -600 Level FlightAware ADS-B
07:59AM 51.6924 -0.5160 167° South 275 316 9,200 -780 Descending FlightAware ADS-B
07:59AM 51.6880 -0.5151 173° South 270 311 9,200 -1,020 Level FlightAware ADS-B
07:59AM 51.6843 -0.5150 180° South 269 310 9,100 -900 Descending FlightAware ADS-B
07:59AM 51.6802 -0.5155 184° South 265 305 9,100 -720 Level FlightAware ADS-B
07:59AM 51.6736 -0.5175 191° South 262 302 9,000 -720 Descending FlightAware ADS-B
07:59AM 51.6690 -0.5209 205° Southwest 259 298 9,000  Level FlightAware ADS-B
07:59AM 51.6653 -0.5235 203° Southwest 258 297 9,000  Level FlightAware ADS-B
07:59AM 51.6612 -0.5275 211° Southwest 255 293 9,000  Level FlightAware ADS-B
07:59AM 51.6568 -0.5334 220° Southwest 253 291 9,000  Level FlightAware ADS-B
07:59AM 51.6536 -0.5388 226° Southwest 251 289 9,000  Level FlightAware ADS-B
07:59AM 51.6509 -0.5447 233° Southwest 248 285 9,000  Level FlightAware ADS-B
07:59AM 51.6489 -0.5492 235° Southwest 246 283 9,000  Level FlightAware ADS-B
07:59AM 51.6464 -0.5590 248° West 242 278 9,000  Level FlightAware ADS-B
08:00AM 51.6450 -0.5659 252° West 240 276 9,000  Level FlightAware ADS-B
08:00AM 51.6442 -0.5712 256° West 238 274 9,000  Level FlightAware ADS-B
08:00AM 51.6437 -0.5816 266° West 237 273 9,000  Level FlightAware ADS-B
08:00AM 51.6437 -0.5869 270° West 236 272 9,000  Level FlightAware ADS-B
08:00AM 51.6447 -0.5973 279° West 237 273 9,000  Level FlightAware ADS-B
08:00AM 51.6458 -0.6042 285° West 236 272 9,000  Level FlightAware ADS-B
08:00AM 51.6481 -0.6140 291° West 234 269 9,000  Level FlightAware ADS-B
08:00AM 51.6521 -0.6262 298° West 233 268 9,000  Level FlightAware ADS-B
08:00AM 51.6582 -0.6465 296° West 233 268 9,000  Level FlightAware ADS-B
08:01AM 51.6658 -0.6696 298° West 234 269 9,000  Level FlightAware ADS-B
08:01AM 51.6725 -0.6915 296° West 235 270 9,000  Level FlightAware ADS-B
08:01AM 51.6792 -0.7133 296° West 232 267 9,000  Level FlightAware ADS-B
08:01AM 51.6826 -0.7222 302° West 232 267 9,000  Level FlightAware ADS-B
08:01AM 51.6857 -0.7288 307° West 232 267 9,000  Level FlightAware ADS-B
08:01AM 51.6907 -0.7360 318° Northwest 233 268 9,000  Level FlightAware ADS-B
08:01AM 51.6948 -0.7412 322° Northwest 235 270 9,000  Level FlightAware ADS-B
08:02AM 51.6988 -0.7448 331° Northwest 237 273 9,000  Level FlightAware ADS-B
08:02AM 51.7019 -0.7471 335° Northwest 238 274 9,000  Level FlightAware ADS-B
08:02AM 51.7069 -0.7500 340° North 241 277 9,000  Level FlightAware ADS-B
08:02AM 51.7130 -0.7520 349° North 244 281 9,000  Level FlightAware ADS-B
08:02AM 51.7166 -0.7525 355° North 246 283 9,000  Level FlightAware ADS-B
08:02AM 51.7208 -0.7526 359° North 248 285 9,000  Level FlightAware ADS-B
08:02AM 51.7248 -0.7522 North 251 289 9,000  Level FlightAware ADS-B
08:02AM 51.7300 -0.7505 11° North 253 291 9,000  Level FlightAware ADS-B
08:02AM 51.7349 -0.7483 16° North 257 296 9,000  Level FlightAware ADS-B
08:02AM 51.7410 -0.7434 26° Northeast 262 302 9,000 -600 Level FlightAware ADS-B
08:02AM 51.7455 -0.7380 36° Northeast 266 306 8,900 -720 Descending FlightAware ADS-B
08:02AM 51.7500 -0.7327 36° Northeast 269 310 8,900  Level FlightAware ADS-B
08:02AM 51.7531 -0.7268 50° Northeast 272 313 8,900 -780 Level FlightAware ADS-B
08:02AM 51.7562 -0.7183 60° Northeast 276 318 8,800 -780 Descending FlightAware ADS-B
08:03AM 51.7587 -0.7110 61° Northeast 277 319 8,800 -720 Level FlightAware ADS-B
08:03AM 51.7607 -0.7011 72° East 280 322 8,700 -780 Descending FlightAware ADS-B
08:03AM 51.7616 -0.6950 76° East 282 325 8,700  Level FlightAware ADS-B
08:03AM 51.7622 -0.6866 83° East 283 326 8,700 -900 Level FlightAware ADS-B
08:03AM 51.7622 -0.6802 90° East 284 327 8,600 -780 Descending FlightAware ADS-B
08:03AM 51.7617 -0.6718 95° East 286 329 8,600 -780 Level FlightAware ADS-B
08:03AM 51.7607 -0.6634 101° East 286 329 8,500 -780 Descending FlightAware ADS-B
08:03AM 51.7589 -0.6554 110° East 287 330 8,500  Level FlightAware ADS-B
08:03AM 51.7559 -0.6456 116° Southeast 285 328 8,500 -600 Level FlightAware ADS-B
08:03AM 51.7468 -0.6153 116° Southeast 284 327 8,300 -780 Descending FlightAware ADS-B
08:04AM 51.7374 -0.5870 118° Southeast 283 326 8,100 -600 Descending FlightAware ADS-B
08:04AM 51.7282 -0.5572 116° Southeast 281 323 8,000 -300 Descending FlightAware ADS-B
08:04AM 51.7232 -0.5422 118° Southeast 281 323 8,000  Level FlightAware ADS-B
08:04AM 51.7180 -0.5299 124° Southeast 282 325 8,000  Level FlightAware ADS-B
08:04AM 51.7151 -0.5233 126° Southeast 280 322 8,000  Level FlightAware ADS-B
08:04AM 51.7115 -0.5177 136° Southeast 278 320 8,000  Level FlightAware ADS-B
08:04AM 51.7044 -0.5106 148° Southeast 276 318 8,000  Level FlightAware ADS-B
08:04AM 51.6993 -0.5062 152° Southeast 273 314 8,000  Level FlightAware ADS-B
08:05AM 51.6914 -0.5021 162° South 272 313 8,000  Level FlightAware ADS-B
08:05AM 51.6817 -0.4968 161° South 273 314 8,000  Level FlightAware ADS-B
08:05AM 51.6628 -0.4884 164° South 274 315 8,000  Level FlightAware ADS-B
08:05AM 51.6426 -0.4789 164° South 273 314 8,000  Level FlightAware ADS-B
08:05AM 51.6287 -0.4726 164° South 271 312 8,000  Level FlightAware ADS-B
08:05AM 51.6228 -0.4695 162° South 271 312 8,000  Level FlightAware ADS-B
08:06AM 51.6187 -0.4663 154° Southeast 273 314 8,000  Level FlightAware ADS-B
08:06AM 51.6123 -0.4600 149° Southeast 276 318 8,000  Level FlightAware ADS-B
08:06AM 51.6068 -0.4533 143° Southeast 278 320 8,000  Level FlightAware ADS-B
08:06AM 51.6019 -0.4435 129° Southeast 280 322 8,000  Level FlightAware ADS-B
08:06AM 51.5999 -0.4363 114° Southeast 280 322 8,000  Level FlightAware ADS-B
08:06AM 51.5972 -0.4269 115° Southeast 280 322 8,000  Level FlightAware ADS-B
08:06AM 51.5957 -0.4193 108° East 279 321 8,000  Level FlightAware ADS-B
08:06AM 51.5893 -0.3896 109° East 276 318 8,000 -420 Level FlightAware ADS-B
08:07AM 51.5833 -0.3587 107° East 274 315 7,800 -1,140 Descending FlightAware ADS-B
08:07AM 51.5788 -0.3375 109° East 274 315 7,500 -1,380 Descending FlightAware ADS-B
08:07AM 51.5770 -0.3257 104° East 274 315 7,400 -1,500 Descending FlightAware ADS-B
08:07AM 51.5756 -0.3116 99° East 273 314 7,200 -1,320 Descending FlightAware ADS-B
08:07AM 51.5745 -0.2974 97° East 273 314 7,100 -960 Descending FlightAware ADS-B
08:07AM 51.5726 -0.2631 95° East 272 313 6,800 -1,140 Descending FlightAware ADS-B
08:08AM 51.5709 -0.2292 95° East 270 311 6,500 -1,140 Descending FlightAware ADS-B
08:08AM 51.5693 -0.1993 95° East 268 308 6,200 -1,320 Descending FlightAware ADS-B
08:08AM 51.5675 -0.1657 95° East 267 307 5,800 -1,140 Descending FlightAware ADS-B
08:08AM 51.5658 -0.1343 95° East 262 302 5,600 -720 Descending FlightAware ADS-B
08:09AM 51.5641 -0.1004 95° East 251 289 5,400 -660 Descending FlightAware ADS-B
08:09AM 51.5626 -0.0644 94° East 240 276 5,200 -600 Descending FlightAware ADS-B
08:09AM 51.5611 -0.0304 94° East 224 258 5,000 -540 Descending FlightAware ADS-B
08:10AM 51.5544 -0.0074 115° Southeast 208 239 4,900 -480 Descending FlightAware ADS-B
08:10AM 51.5467 0.0015 144° Southeast 203 234 4,800 -480 Descending FlightAware ADS-B
08:10AM 51.5433 0.0034 161° South 198 228 4,800  Level FlightAware ADS-B
08:10AM 51.5381 0.0048 170° South 197 227 4,800 -360 Level FlightAware ADS-B
08:10AM 51.5278 0.0056 177° South 194 223 4,700 -420 Descending FlightAware ADS-B
08:11AM 51.5103 0.0061 179° South 194 223 4,600 -300 Descending FlightAware ADS-B
08:11AM 51.4942 -0.0031 200° South 185 213 4,500 -540 Descending FlightAware ADS-B
08:11AM 51.4923 -0.0073 234° Southwest 184 212 4,400 -420 Descending FlightAware ADS-B
08:11AM 51.4867 -0.0223 239° Southwest 181 208 4,400 -240 Level FlightAware ADS-B
08:11AM 51.4787 -0.0449 240° Southwest 183 211 4,300 -360 Descending FlightAware ADS-B
08:12AM 51.4708 -0.0672 240° Southwest 180 207 4,200 -240 Descending FlightAware ADS-B
08:12AM 51.4685 -0.0742 242° Southwest 179 206 4,200 -600 Level FlightAware ADS-B
08:12AM 51.4673 -0.0791 249° West 177 204 4,100 -780 Descending FlightAware ADS-B
08:12AM 51.4662 -0.0855 255° West 179 206 4,100 -780 Level FlightAware ADS-B
08:12AM 51.4657 -0.0908 261° West 180 207 4,000 -1,140 Descending FlightAware ADS-B
08:12AM 51.4654 -0.0987 267° West 179 206 3,900 -780 Descending FlightAware ADS-B
08:12AM 51.4654 -0.1119 270° West 180 207 3,800 -960 Descending FlightAware ADS-B
08:13AM 51.4655 -0.1318 270° West 178 205 3,500 -1,080 Descending FlightAware ADS-B
08:13AM 51.4655 -0.1572 270° West 178 205 3,200 -1,020 Descending FlightAware ADS-B
08:13AM 51.4655 -0.1799 270° West 183 211 2,900 -960 Descending FlightAware ADS-B
08:13AM 51.4655 -0.2004 270° West 184 212 2,700 -1,020 Descending FlightAware ADS-B
08:14AM 51.4655 -0.2444 270° West 168 193 2,100 -960 Descending FlightAware ADS-B
08:15AM 51.4650 -0.3030 269° West 161 185 1,400 -840 Descending FlightAware
08:15AM 51.4650 -0.3300 270° West 159 183 1,100 -720 Descending FlightAware
08:16AM 51.4650 -0.3510 270° West 147 169 900 -780 Descending FlightAware (KMIA)
08:16AM 51.4650 -0.3740 270° West 145 167 600 -900 Descending FlightAware
08:16AM 51.4650 -0.3960 270° West 147 169 300 -780 Descending FlightAware
08:17AM 51.4650 -0.4180 270° West 146 168 100 -600 Descending FlightAware
08:17AM 51.4650 -0.4350 270° West 146 168 -300 Descending FlightAware
08:17AM 51.4650 -0.4580 270° West 146 168  Level FlightAware